createdAt,value
2022-11-24T00:00:48.069Z,100
2022-11-24T00:06:45.340Z,100
2022-11-24T00:12:36.134Z,100
2022-11-24T00:18:27.601Z,100
2022-11-24T00:24:18.259Z,100
2022-11-24T00:30:07.518Z,100
2022-11-24T00:36:03.241Z,100
2022-11-24T00:41:55.958Z,100
2022-11-24T00:48:01.971Z,100
2022-11-24T01:00:58.833Z,100
2022-11-24T01:07:07.094Z,100
2022-11-24T01:26:00.414Z,100
2022-11-24T01:39:06.602Z,100
2022-11-24T01:45:35.200Z,100
2022-11-24T01:58:30.944Z,100
2022-11-24T02:04:39.595Z,100
2022-11-24T02:10:50.049Z,100
2022-11-24T02:17:12.237Z,100
2022-11-24T02:42:30.626Z,100
2022-11-24T02:48:28.389Z,100
2022-11-24T02:54:35.620Z,100
2022-11-24T03:07:30.110Z,100
2022-11-24T03:13:38.231Z,100
2022-11-24T03:19:51.725Z,100
2022-11-24T03:32:50.071Z,100
2022-11-24T03:38:57.385Z,100
2022-11-24T03:45:45.258Z,100
2022-11-24T03:51:45.355Z,100
2022-11-24T03:57:55.193Z,100
2022-11-24T04:04:04.878Z,100
2022-11-24T04:10:18.368Z,100
2022-11-24T04:16:41.851Z,100
2022-11-24T04:22:41.854Z,100
2022-11-24T04:28:37.393Z,100
2022-11-24T04:34:37.370Z,100
2022-11-24T04:40:37.030Z,100
2022-11-24T04:46:32.542Z,100
2022-11-24T04:52:24.390Z,100
2022-11-24T04:58:15.270Z,100
2022-11-24T05:04:08.472Z,100
2022-11-24T05:10:03.740Z,100
2022-11-24T05:15:57.212Z,100
2022-11-24T05:21:50.230Z,100
2022-11-24T05:27:54.717Z,100
2022-11-24T05:33:49.168Z,100
2022-11-24T05:46:35.927Z,100
2022-11-24T05:52:55.942Z,100
2022-11-24T05:59:12.028Z,100
2022-11-24T06:11:48.366Z,100
2022-11-24T06:24:43.572Z,100
2022-11-24T06:45:10.552Z,100
2022-11-24T06:53:00.790Z,100
2022-11-24T06:59:14.815Z,100
2022-11-24T07:12:09.367Z,100
2022-11-24T07:18:25.639Z,100
2022-11-24T07:24:40.195Z,100
2022-11-24T07:37:16.127Z,100
2022-11-24T07:56:25.580Z,100
2022-11-24T08:21:31.132Z,100
2022-11-24T08:27:25.435Z,100
2022-11-24T08:33:33.401Z,100
2022-11-24T08:39:29.723Z,100
2022-11-24T08:45:29.546Z,100
2022-11-24T08:51:41.032Z,100
2022-11-24T08:57:32.538Z,100
2022-11-24T09:03:28.136Z,100
2022-11-24T09:09:36.237Z,100
2022-11-24T09:27:57.432Z,100
2022-11-24T09:40:04.423Z,96.4
2022-11-24T10:05:17.446Z,91.5
2022-11-24T10:18:40.055Z,88.5
2022-11-24T10:24:50.020Z,86.4
2022-11-24T10:43:43.700Z,86.8
2022-11-24T10:49:48.322Z,85.6
2022-11-24T11:01:58.449Z,84.5
2022-11-24T11:21:08.374Z,82.6
2022-11-24T11:27:41.522Z,81.7
2022-11-24T11:58:47.145Z,79.1
2022-11-24T12:05:15.525Z,78.6
2022-11-24T12:11:27.399Z,78.5
2022-11-24T12:23:25.101Z,76.8
2022-11-24T12:36:03.818Z,75.1
2022-11-24T13:00:23.418Z,75.1
2022-11-24T13:06:13.666Z,75
2022-11-24T13:12:06.920Z,75.7
2022-11-24T13:24:32.930Z,74
2022-11-24T13:30:31.705Z,75.1
2022-11-24T13:36:30.447Z,74.8
2022-11-24T13:42:49.142Z,74.3
2022-11-24T13:48:49.484Z,75.6
2022-11-24T13:54:45.111Z,75.1
2022-11-24T14:00:48.457Z,76
2022-11-24T14:37:37.575Z,78.2
2022-11-24T15:08:36.413Z,79.8
2022-11-24T15:14:42.934Z,80.6
2022-11-24T15:20:37.582Z,81.5
2022-11-24T15:26:43.819Z,80.9
2022-11-24T15:32:34.898Z,81.3
2022-11-24T15:38:25.798Z,82.6
2022-11-24T15:44:18.169Z,82.5
2022-11-24T15:50:06.104Z,83.3
2022-11-24T15:55:56.557Z,83.3
2022-11-24T16:01:51.320Z,82.8
2022-11-24T16:07:40.491Z,83.5
2022-11-24T16:13:30.807Z,84.4
2022-11-24T16:19:20.005Z,84.5
2022-11-24T16:25:10.218Z,84.8
2022-11-24T16:31:01.192Z,85.2
2022-11-24T16:36:51.950Z,86.3
2022-11-24T16:42:43.702Z,86.6
2022-11-24T16:48:36.522Z,87.1
2022-11-24T16:54:26.793Z,88
2022-11-24T17:00:23.655Z,88.2
2022-11-24T17:06:16.017Z,88.3
2022-11-24T17:12:07.664Z,89.1
2022-11-24T17:18:25.750Z,89.6
2022-11-24T17:24:14.514Z,90.3
2022-11-24T17:30:11.869Z,90.3
2022-11-24T17:36:02.193Z,90.1
2022-11-24T17:41:53.551Z,90.9
2022-11-24T17:47:44.942Z,91.2
2022-11-24T17:53:46.179Z,91.5
2022-11-24T17:59:40.704Z,91.7
2022-11-24T18:05:41.171Z,91.4
2022-11-24T18:11:35.397Z,93.5
2022-11-24T18:17:27.998Z,93.5
2022-11-24T18:23:21.008Z,94.3
2022-11-24T18:29:14.121Z,94
2022-11-24T18:35:03.992Z,94.6
2022-11-24T18:40:54.799Z,94.7
2022-11-24T18:46:45.130Z,94.7
2022-11-24T18:52:35.988Z,94.4
2022-11-24T18:58:24.757Z,94.7
2022-11-24T19:04:13.746Z,96
2022-11-24T19:10:04.080Z,95.9
2022-11-24T19:15:54.533Z,95.6
2022-11-24T19:21:45.117Z,96.4
2022-11-24T19:27:33.734Z,96.4
2022-11-24T19:33:24.728Z,96.1
2022-11-24T19:39:17.735Z,97.6
2022-11-24T19:45:06.772Z,97.1
2022-11-24T19:50:57.701Z,98
2022-11-24T19:56:50.628Z,98.3
2022-11-24T20:02:41.111Z,99
2022-11-24T20:08:31.868Z,98.9
2022-11-24T20:14:22.020Z,99.3
2022-11-24T20:20:11.131Z,99
2022-11-24T20:26:00.886Z,98.1
2022-11-24T20:31:51.326Z,98.7
2022-11-24T20:37:41.666Z,99.2
2022-11-24T20:43:43.314Z,99.6
2022-11-24T20:49:34.082Z,100
2022-11-24T20:55:24.043Z,100
2022-11-24T21:01:18.237Z,99.5
2022-11-24T21:07:09.142Z,100
2022-11-24T21:13:00.031Z,100
2022-11-24T21:18:50.526Z,100
2022-11-24T21:24:40.492Z,100
2022-11-24T21:30:31.665Z,100
2022-11-24T21:36:22.252Z,100
2022-11-24T21:42:13.855Z,100
2022-11-24T21:48:05.182Z,100
2022-11-24T21:53:56.312Z,100
2022-11-24T21:59:48.042Z,100
2022-11-24T22:05:38.677Z,100
2022-11-24T22:11:29.246Z,100
2022-11-24T22:17:18.169Z,100
2022-11-24T22:23:09.145Z,100
2022-11-24T22:29:00.296Z,100
2022-11-24T22:34:51.069Z,100
2022-11-24T22:40:41.560Z,100
2022-11-24T22:46:31.840Z,100
2022-11-24T22:52:22.947Z,100
2022-11-24T22:58:12.897Z,100
2022-11-24T23:04:04.789Z,100
2022-11-24T23:10:02.010Z,100
2022-11-24T23:15:52.477Z,100
2022-11-24T23:21:44.427Z,100
2022-11-24T23:27:34.348Z,100
2022-11-24T23:33:26.247Z,100
2022-11-24T23:39:19.061Z,100
2022-11-24T23:45:10.952Z,100
2022-11-24T23:51:04.539Z,100
2022-11-24T23:56:57.582Z,100
